createdAt,value
2023-02-11T00:00:42.034Z,-0.70
2023-02-11T00:03:10.207Z,-0.72
2023-02-11T00:05:39.292Z,-0.69
2023-02-11T00:08:07.584Z,-0.57
2023-02-11T00:10:36.747Z,-0.55
2023-02-11T00:13:04.982Z,-0.58
2023-02-11T00:15:35.139Z,-0.63
2023-02-11T00:18:03.933Z,-0.66
2023-02-11T00:20:32.071Z,-0.68
2023-02-11T00:23:00.612Z,-0.70
2023-02-11T00:25:29.507Z,-0.72
2023-02-11T00:27:58.077Z,-0.73
2023-02-11T00:30:26.190Z,-0.74
2023-02-11T00:32:54.870Z,-0.62
2023-02-11T00:35:22.912Z,-0.50
2023-02-11T00:37:54.119Z,-0.51
2023-02-11T00:40:22.958Z,-0.53
2023-02-11T00:42:51.049Z,-0.54
2023-02-11T00:45:21.307Z,-0.57
2023-02-11T00:47:49.837Z,-0.61
2023-02-11T00:50:17.935Z,-0.63
2023-02-11T00:52:46.366Z,-0.66
2023-02-11T00:55:15.258Z,-0.65
2023-02-11T00:57:43.794Z,-0.51
2023-02-11T01:00:12.832Z,-0.48
2023-02-11T01:02:45.117Z,-0.48
2023-02-11T01:05:15.498Z,-0.51
2023-02-11T01:07:44.387Z,-0.57
2023-02-11T01:10:15.171Z,-0.62
2023-02-11T01:12:43.759Z,-0.66
2023-02-11T01:15:15.026Z,-0.69
2023-02-11T01:17:43.610Z,-0.60
2023-02-11T01:20:16.153Z,-0.49
2023-02-11T01:22:44.403Z,-0.52
2023-02-11T01:25:14.055Z,-0.55
2023-02-11T01:27:42.657Z,-0.60
2023-02-11T01:30:12.925Z,-0.66
2023-02-11T01:32:41.626Z,-0.70
2023-02-11T01:35:10.030Z,-0.75
2023-02-11T01:37:38.605Z,-0.79
2023-02-11T01:40:08.288Z,-0.73
2023-02-11T01:42:36.811Z,-0.70
2023-02-11T01:45:57.992Z,-0.75
2023-02-11T01:48:37.941Z,-0.85
2023-02-11T01:51:18.577Z,-0.95
2023-02-11T01:54:05.601Z,-1.01
2023-02-11T01:56:54.075Z,-0.91
2023-02-11T01:59:33.358Z,-0.90
2023-02-11T02:02:05.329Z,-0.96
2023-02-11T02:04:35.911Z,-1.02
2023-02-11T02:07:08.615Z,-1.07
2023-02-11T02:09:40.463Z,-1.09
2023-02-11T02:12:08.497Z,-1.00
2023-02-11T02:14:40.991Z,-0.96
2023-02-11T02:17:26.612Z,-1.01
2023-02-11T02:20:23.123Z,-1.06
2023-02-11T02:22:59.077Z,-1.10
2023-02-11T02:25:53.082Z,-1.13
2023-02-11T02:28:51.845Z,-1.04
2023-02-11T02:31:42.100Z,-1.05
2023-02-11T02:34:15.921Z,-1.10
2023-02-11T02:36:44.901Z,-1.14
2023-02-11T02:39:20.671Z,-1.16
2023-02-11T02:41:48.831Z,-1.18
2023-02-11T02:44:16.902Z,-1.11
2023-02-11T02:46:44.986Z,-0.98
2023-02-11T02:49:13.984Z,-0.97
2023-02-11T02:51:53.948Z,-1.02
2023-02-11T02:54:56.115Z,-1.06
2023-02-11T02:57:24.059Z,-1.12
2023-02-11T02:59:51.983Z,-1.13
2023-02-11T03:02:22.794Z,-1.03
2023-02-11T03:05:08.944Z,-1.04
2023-02-11T03:07:56.562Z,-1.10
2023-02-11T03:10:29.199Z,-1.16
2023-02-11T03:12:57.606Z,-1.21
2023-02-11T03:15:27.161Z,-1.13
2023-02-11T03:17:56.568Z,-1.02
2023-02-11T03:20:24.723Z,-1.04
2023-02-11T03:22:58.595Z,-1.06
2023-02-11T03:25:29.558Z,-1.08
2023-02-11T03:28:08.961Z,-1.11
2023-02-11T03:30:40.299Z,-1.13
2023-02-11T03:33:24.380Z,-1.05
2023-02-11T03:36:00.792Z,-0.96
2023-02-11T03:38:38.497Z,-0.99
2023-02-11T03:41:07.117Z,-1.04
2023-02-11T03:43:42.318Z,-1.08
2023-02-11T03:46:10.325Z,-1.12
2023-02-11T03:48:40.664Z,-1.11
2023-02-11T03:51:09.586Z,-1.04
2023-02-11T03:53:39.673Z,-1.04
2023-02-11T03:56:09.286Z,-1.10
2023-02-11T03:58:37.635Z,-1.15
2023-02-11T04:01:08.991Z,-1.19
2023-02-11T04:03:37.404Z,-1.19
2023-02-11T04:06:06.203Z,-1.11
2023-02-11T04:08:34.596Z,-1.13
2023-02-11T04:11:04.695Z,-1.23
2023-02-11T04:13:33.663Z,-1.30
2023-02-11T04:16:02.091Z,-1.27
2023-02-11T04:18:32.951Z,-1.20
2023-02-11T04:21:00.934Z,-1.22
2023-02-11T04:23:29.204Z,-1.26
2023-02-11T04:25:57.317Z,-1.30
2023-02-11T04:28:26.958Z,-1.30
2023-02-11T04:30:56.180Z,-1.20
2023-02-11T04:33:24.319Z,-1.17
2023-02-11T04:35:53.023Z,-1.22
2023-02-11T04:38:24.072Z,-1.26
2023-02-11T04:40:52.137Z,-1.21
2023-02-11T04:43:20.142Z,-1.15
2023-02-11T04:45:48.666Z,-1.19
2023-02-11T04:48:18.255Z,-1.24
2023-02-11T04:50:47.087Z,-1.26
2023-02-11T04:53:15.384Z,-1.18
2023-02-11T04:55:45.086Z,-1.13
2023-02-11T04:58:13.304Z,-1.19
2023-02-11T05:00:41.430Z,-1.26
2023-02-11T05:03:09.658Z,-1.31
2023-02-11T05:05:41.490Z,-1.23
2023-02-11T05:08:10.181Z,-1.24
2023-02-11T05:10:39.098Z,-1.33
2023-02-11T05:13:07.433Z,-1.41
2023-02-11T05:15:35.715Z,-1.36
2023-02-11T05:18:04.581Z,-1.35
2023-02-11T05:20:32.691Z,-1.46
2023-02-11T05:23:01.140Z,-1.52
2023-02-11T05:25:30.050Z,-1.57
2023-02-11T05:27:58.578Z,-1.49
2023-02-11T05:30:27.000Z,-1.48
2023-02-11T05:32:55.765Z,-1.53
2023-02-11T05:35:24.206Z,-1.52
2023-02-11T05:37:56.867Z,-1.41
2023-02-11T05:40:25.980Z,-1.39
2023-02-11T05:42:57.269Z,-1.42
2023-02-11T05:45:26.960Z,-1.42
2023-02-11T05:47:55.785Z,-1.31
2023-02-11T05:50:23.723Z,-1.18
2023-02-11T05:52:53.946Z,-1.18
2023-02-11T05:55:22.340Z,-1.21
2023-02-11T05:57:50.985Z,-1.22
2023-02-11T06:00:19.590Z,-1.11
2023-02-11T06:02:48.517Z,-1.07
2023-02-11T06:05:18.294Z,-1.11
2023-02-11T06:07:47.656Z,-1.15
2023-02-11T06:10:16.505Z,-1.12
2023-02-11T06:12:45.040Z,-1.04
2023-02-11T06:15:15.383Z,-1.05
2023-02-11T06:17:44.476Z,-1.10
2023-02-11T06:20:16.547Z,-1.05
2023-02-11T06:22:45.291Z,-0.97
2023-02-11T06:25:13.645Z,-0.97
2023-02-11T06:27:46.094Z,-1.00
2023-02-11T06:30:14.720Z,-0.97
2023-02-11T06:32:46.658Z,-0.83
2023-02-11T06:35:17.030Z,-0.75
2023-02-11T06:37:48.201Z,-0.74
2023-02-11T06:40:17.112Z,-0.72
2023-02-11T06:42:46.162Z,-0.68
2023-02-11T06:45:15.011Z,-0.54
2023-02-11T06:47:43.336Z,-0.47
2023-02-11T06:50:14.396Z,-0.50
2023-02-11T06:52:43.419Z,-0.54
2023-02-11T06:55:11.694Z,-0.56
2023-02-11T06:57:42.320Z,-0.44
2023-02-11T07:00:11.568Z,-0.37
2023-02-11T07:02:40.303Z,-0.40
2023-02-11T07:05:09.486Z,-0.44
2023-02-11T07:07:37.573Z,-0.45
2023-02-11T07:10:08.655Z,-0.38
2023-02-11T07:12:40.581Z,-0.35
2023-02-11T07:15:09.342Z,-0.40
2023-02-11T07:17:37.534Z,-0.44
2023-02-11T07:20:06.469Z,-0.39
2023-02-11T07:22:35.078Z,-0.35
2023-02-11T07:25:04.646Z,-0.39
2023-02-11T07:27:33.380Z,-0.44
2023-02-11T07:30:01.597Z,-0.46
2023-02-11T07:32:30.190Z,-0.39
2023-02-11T07:35:04.070Z,-0.42
2023-02-11T07:37:34.737Z,-0.48
2023-02-11T07:40:03.493Z,-0.50
2023-02-11T07:42:31.765Z,-0.41
2023-02-11T07:45:00.652Z,-0.36
2023-02-11T07:47:28.743Z,-0.38
2023-02-11T07:49:58.433Z,-0.40
2023-02-11T07:52:30.198Z,-0.37
2023-02-11T07:54:58.356Z,-0.25
2023-02-11T07:57:27.491Z,-0.25
2023-02-11T07:59:56.327Z,-0.29
2023-02-11T08:02:25.721Z,-0.32
2023-02-11T08:04:54.367Z,-0.22
2023-02-11T08:07:22.554Z,-0.15
2023-02-11T08:09:55.690Z,-0.18
2023-02-11T08:12:23.874Z,-0.23
2023-02-11T08:14:51.954Z,-0.16
2023-02-11T08:17:20.093Z,-0.17
2023-02-11T08:19:48.775Z,-0.24
2023-02-11T08:22:16.676Z,-0.18
2023-02-11T08:24:44.720Z,-0.12
2023-02-11T08:27:14.256Z,-0.14
2023-02-11T08:29:42.588Z,-0.13
2023-02-11T08:32:15.603Z,-0.01
2023-02-11T08:34:43.598Z,0.04
2023-02-11T08:37:11.565Z,0.01
2023-02-11T08:39:40.301Z,-0.03
2023-02-11T08:42:08.287Z,0.01
2023-02-11T08:44:37.181Z,0.06
2023-02-11T08:47:05.299Z,0.01
2023-02-11T08:49:34.277Z,-0.03
2023-02-11T08:52:04.270Z,0.05
2023-02-11T08:54:34.606Z,0.10
2023-02-11T08:57:03.015Z,0.09
2023-02-11T08:59:31.249Z,0.07
2023-02-11T09:01:59.272Z,0.17
2023-02-11T09:04:27.220Z,0.21
2023-02-11T09:06:55.569Z,0.16
2023-02-11T09:09:23.541Z,0.14
2023-02-11T09:11:51.444Z,0.23
2023-02-11T09:14:21.396Z,0.23
2023-02-11T09:16:51.672Z,0.17
2023-02-11T09:19:25.331Z,0.15
2023-02-11T09:21:53.338Z,0.25
2023-02-11T09:24:21.313Z,0.29
2023-02-11T09:26:49.776Z,0.25
2023-02-11T09:29:17.971Z,0.24
2023-02-11T09:31:47.196Z,0.32
2023-02-11T09:34:16.053Z,0.34
2023-02-11T09:36:44.003Z,0.33
2023-02-11T09:39:15.109Z,0.34
2023-02-11T09:41:56.189Z,0.44
2023-02-11T09:44:26.268Z,0.45
2023-02-11T09:46:57.438Z,0.38
2023-02-11T09:49:49.495Z,0.40
2023-02-11T09:52:38.045Z,0.44
2023-02-11T09:55:30.836Z,0.37
2023-02-11T09:57:59.071Z,0.32
2023-02-11T10:00:33.594Z,0.38
2023-02-11T10:03:26.967Z,0.42
2023-02-11T10:06:07.843Z,0.36
2023-02-11T10:08:51.465Z,0.32
2023-02-11T10:11:31.953Z,0.43
2023-02-11T10:14:33.298Z,0.45
2023-02-11T10:17:26.330Z,0.42
2023-02-11T10:20:06.695Z,0.45
2023-02-11T10:22:36.569Z,0.57
2023-02-11T10:25:41.123Z,0.57
2023-02-11T10:28:22.239Z,0.55
2023-02-11T10:31:11.730Z,0.65
2023-02-11T10:33:42.818Z,0.66
2023-02-11T10:36:14.690Z,0.64
2023-02-11T10:38:42.880Z,0.73
2023-02-11T10:41:15.304Z,0.82
2023-02-11T10:43:43.784Z,0.83
2023-02-11T10:46:21.491Z,0.81
2023-02-11T10:48:52.998Z,0.89
2023-02-11T10:51:23.659Z,0.90
2023-02-11T10:54:08.614Z,0.85
2023-02-11T10:56:38.506Z,0.89
2023-02-11T10:59:21.960Z,0.94
2023-02-11T11:01:51.901Z,0.91
2023-02-11T11:04:45.411Z,0.89
2023-02-11T11:07:22.275Z,0.98
2023-02-11T11:10:07.004Z,0.97
2023-02-11T11:12:56.401Z,0.94
2023-02-11T11:15:29.306Z,0.99
2023-02-11T11:18:22.813Z,1.11
2023-02-11T11:21:02.208Z,1.08
2023-02-11T11:23:31.486Z,0.98
2023-02-11T11:26:08.168Z,1.01
2023-02-11T11:28:51.967Z,1.03
2023-02-11T11:31:23.121Z,0.91
2023-02-11T11:33:52.536Z,0.84
2023-02-11T11:36:22.902Z,0.87
2023-02-11T11:38:54.546Z,0.82
2023-02-11T11:41:33.679Z,0.77
2023-02-11T11:44:21.876Z,0.80
2023-02-11T11:47:08.242Z,0.88
2023-02-11T11:49:44.500Z,0.84
2023-02-11T11:52:34.565Z,0.90
2023-02-11T11:55:27.613Z,0.93
2023-02-11T11:57:55.939Z,0.91
2023-02-11T12:00:28.709Z,0.92
2023-02-11T12:03:19.747Z,0.95
2023-02-11T12:06:07.423Z,0.94
2023-02-11T12:11:31.426Z,0.86
2023-02-11T12:14:31.114Z,0.94
2023-02-11T12:17:33.538Z,0.96
2023-02-11T12:20:06.037Z,0.90
2023-02-11T12:22:59.026Z,0.96
2023-02-11T12:25:28.431Z,1.05
2023-02-11T12:27:56.810Z,1.02
2023-02-11T12:30:43.519Z,1.02
2023-02-11T12:33:37.437Z,1.12
2023-02-11T12:36:13.054Z,1.16
2023-02-11T12:39:01.738Z,1.21
2023-02-11T12:41:55.241Z,1.40
2023-02-11T12:44:43.695Z,1.50
2023-02-11T12:47:30.837Z,1.53
2023-02-11T12:50:11.022Z,1.67
2023-02-11T12:52:53.751Z,1.77
2023-02-11T12:55:23.813Z,1.69
2023-02-11T12:57:52.574Z,1.59
2023-02-11T13:00:22.500Z,1.60
2023-02-11T13:02:57.045Z,1.57
2023-02-11T13:05:37.639Z,1.47
2023-02-11T13:08:26.374Z,1.49
2023-02-11T13:11:00.881Z,1.52
2023-02-11T13:13:35.981Z,1.47
2023-02-11T13:16:26.484Z,1.52
2023-02-11T13:19:50.905Z,1.58
2023-02-11T13:22:38.990Z,1.54
2023-02-11T13:25:41.495Z,1.56
2023-02-11T13:28:37.170Z,1.67
2023-02-11T13:31:07.784Z,1.63
2023-02-11T13:33:44.621Z,1.68
2023-02-11T13:36:15.227Z,1.98
2023-02-11T13:38:52.110Z,2.19
2023-02-11T13:41:33.617Z,2.19
2023-02-11T13:44:11.393Z,2.05
2023-02-11T13:47:02.758Z,1.85
2023-02-11T13:49:41.312Z,1.79
2023-02-11T13:52:22.347Z,1.72
2023-02-11T13:54:52.311Z,1.60
2023-02-11T13:57:21.355Z,1.51
2023-02-11T13:59:53.654Z,1.48
2023-02-11T14:02:52.917Z,1.54
2023-02-11T14:05:47.803Z,1.53
2023-02-11T14:08:43.205Z,1.47
2023-02-11T14:11:42.253Z,1.43
2023-02-11T14:14:16.174Z,1.52
2023-02-11T14:17:07.926Z,1.55
2023-02-11T14:19:49.741Z,1.51
2023-02-11T14:22:30.047Z,1.45
2023-02-11T14:25:00.230Z,1.46
2023-02-11T14:27:43.842Z,1.53
2023-02-11T14:30:27.135Z,1.51
2023-02-11T14:33:03.877Z,1.42
2023-02-11T14:35:44.232Z,1.33
2023-02-11T14:38:47.982Z,1.38
2023-02-11T14:41:23.197Z,1.36
2023-02-11T14:44:02.157Z,1.26
2023-02-11T14:46:32.907Z,1.15
2023-02-11T14:49:02.403Z,1.19
2023-02-11T14:51:36.205Z,1.20
2023-02-11T14:54:17.772Z,1.11
2023-02-11T14:56:46.908Z,0.99
2023-02-11T14:59:22.316Z,0.96
2023-02-11T15:01:51.564Z,0.98
2023-02-11T15:04:31.404Z,0.91
2023-02-11T15:07:04.176Z,0.82
2023-02-11T15:09:46.764Z,0.81
2023-02-11T15:12:28.141Z,0.89
2023-02-11T15:14:58.777Z,0.85
2023-02-11T15:17:30.649Z,0.74
2023-02-11T15:20:00.818Z,0.72
2023-02-11T15:22:33.594Z,0.72
2023-02-11T15:25:16.797Z,0.83
2023-02-11T15:27:50.541Z,0.84
2023-02-11T15:30:22.179Z,0.79
2023-02-11T15:33:04.107Z,0.72
2023-02-11T15:35:42.588Z,0.71
2023-02-11T15:38:11.654Z,0.67
2023-02-11T15:40:39.818Z,0.70
2023-02-11T15:43:09.936Z,0.80
2023-02-11T15:45:42.823Z,0.78
2023-02-11T15:48:18.045Z,0.73
2023-02-11T15:50:52.354Z,0.69
2023-02-11T15:53:43.226Z,0.64
2023-02-11T15:56:18.216Z,0.61
2023-02-11T15:58:50.843Z,0.57
2023-02-11T16:01:18.846Z,0.57
2023-02-11T16:03:50.047Z,0.56
2023-02-11T16:06:25.025Z,0.55
2023-02-11T16:09:22.102Z,0.54
2023-02-11T16:11:50.149Z,0.55
2023-02-11T16:14:37.254Z,0.56
2023-02-11T16:17:12.853Z,0.56
2023-02-11T16:19:46.372Z,0.56
2023-02-11T16:22:24.864Z,0.57
2023-02-11T16:24:54.221Z,0.56
2023-02-11T16:27:34.963Z,0.58
2023-02-11T16:30:03.936Z,0.57
2023-02-11T16:32:32.792Z,0.57
2023-02-11T16:35:02.144Z,0.54
2023-02-11T16:37:31.920Z,0.53
2023-02-11T16:40:00.175Z,0.50
2023-02-11T16:42:28.825Z,0.53
2023-02-11T16:44:57.315Z,0.63
2023-02-11T16:47:27.179Z,0.61
2023-02-11T16:49:55.928Z,0.55
2023-02-11T16:52:24.111Z,0.53
2023-02-11T16:54:52.533Z,0.51
2023-02-11T16:57:23.246Z,0.50
2023-02-11T16:59:51.802Z,0.49
2023-02-11T17:02:27.340Z,0.49
2023-02-11T17:04:57.902Z,0.51
2023-02-11T17:07:26.149Z,0.50
2023-02-11T17:09:55.622Z,0.50
2023-02-11T17:12:26.616Z,0.50
2023-02-11T17:14:55.055Z,0.50
2023-02-11T17:17:24.706Z,0.49
2023-02-11T17:19:53.724Z,0.49
2023-02-11T17:22:21.984Z,0.48
2023-02-11T17:24:49.980Z,0.49
2023-02-11T17:27:18.470Z,0.53
2023-02-11T17:29:46.490Z,0.67
2023-02-11T17:32:15.522Z,0.72
2023-02-11T17:34:44.458Z,0.72
2023-02-11T17:37:12.639Z,0.70
2023-02-11T17:39:40.921Z,0.68
2023-02-11T17:42:09.370Z,0.67
2023-02-11T17:44:38.918Z,0.65
2023-02-11T17:47:07.809Z,0.65
2023-02-11T17:49:36.614Z,0.63
2023-02-11T17:52:06.490Z,0.62
2023-02-11T17:54:35.029Z,0.61
2023-02-11T17:57:03.460Z,0.62
2023-02-11T17:59:35.844Z,0.74
2023-02-11T18:02:04.610Z,0.77
2023-02-11T18:04:32.885Z,0.75
2023-02-11T18:07:01.328Z,0.74
2023-02-11T18:09:37.498Z,0.71
2023-02-11T18:12:06.773Z,0.70
2023-02-11T18:14:34.782Z,0.69
2023-02-11T18:17:03.184Z,0.68
2023-02-11T18:19:33.185Z,0.66
2023-02-11T18:22:04.485Z,0.65
2023-02-11T18:24:33.463Z,0.70
2023-02-11T18:27:01.629Z,0.83
2023-02-11T18:29:30.022Z,0.82
2023-02-11T18:31:58.150Z,0.83
2023-02-11T18:34:26.835Z,0.81
2023-02-11T18:36:55.296Z,0.79
2023-02-11T18:39:26.501Z,0.75
2023-02-11T18:41:57.068Z,0.73
2023-02-11T18:44:26.946Z,0.71
2023-02-11T18:46:55.204Z,0.81
2023-02-11T18:49:23.806Z,0.87
2023-02-11T18:51:52.739Z,0.85
2023-02-11T18:54:21.109Z,0.81
2023-02-11T18:56:49.544Z,0.79
2023-02-11T18:59:17.977Z,0.75
2023-02-11T19:01:47.211Z,0.74
2023-02-11T19:04:20.676Z,0.84
2023-02-11T19:06:50.487Z,0.88
2023-02-11T19:09:22.662Z,0.83
2023-02-11T19:11:58.397Z,0.78
2023-02-11T19:14:28.432Z,0.73
2023-02-11T19:16:57.739Z,0.71
2023-02-11T19:19:28.840Z,0.79
2023-02-11T19:21:59.437Z,0.82
2023-02-11T19:24:28.355Z,0.78
2023-02-11T19:26:58.790Z,0.74
2023-02-11T19:29:32.426Z,0.69
2023-02-11T19:32:01.196Z,0.74
2023-02-11T19:34:30.282Z,0.80
2023-02-11T19:37:04.810Z,0.75
2023-02-11T19:39:34.228Z,0.69
2023-02-11T19:42:02.284Z,0.67
2023-02-11T19:44:30.793Z,0.72
2023-02-11T19:47:00.227Z,0.69
2023-02-11T19:49:32.644Z,0.61
2023-02-11T19:52:01.791Z,0.63
2023-02-11T19:54:31.367Z,0.65
2023-02-11T19:57:00.105Z,0.58
2023-02-11T19:59:29.489Z,0.52
2023-02-11T20:01:58.149Z,0.50
2023-02-11T20:04:27.986Z,0.58
2023-02-11T20:06:56.698Z,0.60
2023-02-11T20:09:26.942Z,0.52
2023-02-11T20:11:56.873Z,0.50
2023-02-11T20:14:27.906Z,0.57
2023-02-11T20:16:58.186Z,0.59
2023-02-11T20:19:27.196Z,0.55
2023-02-11T20:21:56.143Z,0.52
2023-02-11T20:24:25.053Z,0.60
2023-02-11T20:26:56.169Z,0.62
2023-02-11T20:29:25.180Z,0.56
2023-02-11T20:31:54.152Z,0.52
2023-02-11T20:34:22.495Z,0.61
2023-02-11T20:36:54.966Z,0.60
2023-02-11T20:39:27.934Z,0.55
2023-02-11T20:41:57.564Z,0.56
2023-02-11T20:44:25.680Z,0.61
2023-02-11T20:46:54.557Z,0.55
2023-02-11T20:49:24.180Z,0.47
2023-02-11T20:51:54.369Z,0.46
2023-02-11T20:54:26.637Z,0.51
2023-02-11T20:56:56.280Z,0.55
2023-02-11T20:59:24.637Z,0.50
2023-02-11T21:01:55.574Z,0.44
2023-02-11T21:04:30.926Z,0.49
2023-02-11T21:07:03.722Z,0.53
2023-02-11T21:09:35.231Z,0.48
2023-02-11T21:12:03.650Z,0.44
2023-02-11T21:14:34.197Z,0.50
2023-02-11T21:17:02.513Z,0.52
2023-02-11T21:19:31.042Z,0.43
2023-02-11T21:22:01.464Z,0.43
2023-02-11T21:24:31.196Z,0.48
2023-02-11T21:27:02.938Z,0.45
2023-02-11T21:29:31.272Z,0.38
2023-02-11T21:31:59.341Z,0.39
2023-02-11T21:34:27.894Z,0.45
2023-02-11T21:36:56.065Z,0.42
2023-02-11T21:39:24.441Z,0.37
2023-02-11T21:41:52.614Z,0.41
2023-02-11T21:44:21.216Z,0.44
2023-02-11T21:46:49.914Z,0.39
2023-02-11T21:49:19.865Z,0.33
2023-02-11T21:51:49.177Z,0.39
2023-02-11T21:54:22.784Z,0.41
2023-02-11T21:56:51.906Z,0.34
2023-02-11T21:59:21.077Z,0.31
2023-02-11T22:01:50.422Z,0.40
2023-02-11T22:04:19.216Z,0.44
2023-02-11T22:06:47.859Z,0.41
2023-02-11T22:09:19.210Z,0.36
2023-02-11T22:11:49.664Z,0.41
2023-02-11T22:14:17.877Z,0.48
2023-02-11T22:16:48.283Z,0.42
2023-02-11T22:19:17.386Z,0.37
2023-02-11T22:21:45.427Z,0.41
2023-02-11T22:24:13.533Z,0.48
2023-02-11T22:26:41.530Z,0.45
2023-02-11T22:29:10.944Z,0.43
2023-02-11T22:31:40.256Z,0.50
2023-02-11T22:34:08.718Z,0.53
2023-02-11T22:36:39.439Z,0.49
2023-02-11T22:39:13.339Z,0.49
2023-02-11T22:41:42.585Z,0.55
2023-02-11T22:44:10.683Z,0.54
2023-02-11T22:46:38.885Z,0.49
2023-02-11T22:49:07.523Z,0.46
2023-02-11T22:51:35.547Z,0.51
2023-02-11T22:54:04.928Z,0.53
2023-02-11T22:56:33.743Z,0.47
2023-02-11T22:59:04.076Z,0.44
2023-02-11T23:01:32.327Z,0.51
2023-02-11T23:04:01.314Z,0.53
2023-02-11T23:06:29.539Z,0.48
2023-02-11T23:08:58.156Z,0.45
2023-02-11T23:11:28.924Z,0.50
2023-02-11T23:13:59.356Z,0.53
2023-02-11T23:16:31.322Z,0.49
2023-02-11T23:19:01.375Z,0.54
2023-02-11T23:21:31.052Z,0.62
2023-02-11T23:24:01.177Z,0.58
2023-02-11T23:26:30.185Z,0.53
2023-02-11T23:28:59.031Z,0.56
2023-02-11T23:31:30.055Z,0.66
2023-02-11T23:33:58.558Z,0.68
2023-02-11T23:36:26.701Z,0.64
2023-02-11T23:38:58.441Z,0.64
2023-02-11T23:41:26.496Z,0.72
2023-02-11T23:43:56.196Z,0.75
2023-02-11T23:46:26.129Z,0.70
2023-02-11T23:48:54.646Z,0.68
2023-02-11T23:51:22.683Z,0.76
2023-02-11T23:53:51.095Z,0.81
2023-02-11T23:56:21.507Z,0.81
2023-02-11T23:58:50.556Z,0.77
